Time;durP1;ratioP1;P1;durP2;ratioP2;P2;SDS_P1;SDS_P2;PMS_P1;PMS_P2;Temp;Humidity;BMP_temperature;BMP_pressure;BME280_temperature;BME280_humidity;BME280_pressure;Samples;Min_cycle;Max_cycle;Signal;HPM_P1;HPM_P2
2023/01/27 00:01:09;;;;;;;15.10;7.82;;;3.40;67.20;;;;;;2315849;53;21346;-71
2023/01/27 00:03:36;;;;;;;16.35;7.68;;;3.40;67.20;;;;;;2313963;54;21047;-73
2023/01/27 00:06:05;;;;;;;15.02;7.95;;;3.40;67.20;;;;;;2321311;54;20909;-72
2023/01/27 00:08:31;;;;;;;16.75;8.00;;;3.40;67.20;;;;;;2332671;53;21024;-73
2023/01/27 00:13:42;;;;;;;15.18;7.55;;;3.40;67.20;;;;;;2554310;53;21819;-70
2023/01/27 00:16:10;;;;;;;15.18;7.85;;;3.40;67.20;;;;;;2314689;54;21024;-74
2023/01/27 00:18:37;;;;;;;17.12;8.13;;;3.40;67.30;;;;;;2314099;54;20996;-72
2023/01/27 00:26:32;;;;;;;15.13;7.32;;;3.40;67.40;;;;;;2476059;53;20993;-72
2023/01/27 00:28:59;;;;;;;15.57;7.97;;;3.40;67.50;;;;;;2555116;53;20951;-71
2023/01/27 00:34:10;;;;;;;15.60;7.25;;;3.30;67.50;;;;;;2315181;54;20937;-72
2023/01/27 00:36:37;;;;;;;15.55;7.05;;;3.40;67.70;;;;;;2314391;54;21064;-73
2023/01/27 00:39:04;;;;;;;15.18;7.93;;;3.30;67.60;;;;;;2465440;53;20973;-71
2023/01/27 00:41:33;;;;;;;16.00;7.65;;;3.40;67.80;;;;;;2554611;53;21048;-70
2023/01/27 00:44:00;;;;;;;16.52;8.18;;;3.40;67.80;;;;;;2315381;54;21605;-73
2023/01/27 00:46:26;;;;;;;15.77;7.70;;;3.40;67.90;;;;;;2555006;53;21374;-74
2023/01/27 00:48:53;;;;;;;17.45;8.13;;;3.40;67.90;;;;;;2314745;53;20933;-70
2023/01/27 00:51:19;;;;;;;16.73;8.43;;;3.40;67.90;;;;;;2554729;53;21459;-72
2023/01/27 00:53:45;;;;;;;15.27;7.70;;;3.40;67.80;;;;;;2332243;54;21069;-74
2023/01/27 00:56:12;;;;;;;15.82;7.78;;;3.40;67.80;;;;;;2325142;53;21787;-71
2023/01/27 00:58:38;;;;;;;15.00;7.22;;;3.40;67.70;;;;;;2326908;53;20966;-72
2023/01/27 01:01:09;;;;;;;14.65;7.12;;;3.50;67.80;;;;;;2334072;53;21563;-71
2023/01/27 01:03:35;;;;;;;15.23;7.35;;;3.50;67.80;;;;;;2332497;53;20936;-72
2023/01/27 01:06:05;;;;;;;15.45;7.00;;;3.50;67.80;;;;;;2344458;53;20962;-71
2023/01/27 01:08:33;;;;;;;13.07;6.60;;;3.50;67.80;;;;;;2432221;53;21008;-72
2023/01/27 01:11:00;;;;;;;13.40;7.00;;;3.50;67.90;;;;;;2315138;54;20940;-71
2023/01/27 01:13:27;;;;;;;15.63;7.97;;;3.50;67.90;;;;;;2513160;53;20978;-72
2023/01/27 01:15:53;;;;;;;17.30;8.32;;;3.50;67.90;;;;;;2324731;53;21477;-71
2023/01/27 01:18:20;;;;;;;15.10;8.00;;;3.50;67.80;;;;;;2314607;54;21840;-72
2023/01/27 01:20:46;;;;;;;17.55;7.70;;;3.50;67.80;;;;;;2413775;53;20972;-73
2023/01/27 01:23:13;;;;;;;17.80;7.82;;;3.50;67.70;;;;;;2311691;54;20946;-70
2023/01/27 01:25:50;;;;;;;16.80;8.77;;;3.60;67.80;;;;;;2313886;54;21008;-72
2023/01/27 01:28:17;;;;;;;16.75;7.65;;;3.50;67.70;;;;;;2314253;54;20948;-70
2023/01/27 01:30:44;;;;;;;18.23;8.93;;;3.50;67.70;;;;;;2314318;54;20976;-71
2023/01/27 01:33:10;;;;;;;16.95;8.65;;;3.50;67.70;;;;;;2314920;54;21430;-74
2023/01/27 01:35:37;;;;;;;19.02;9.77;;;3.50;67.70;;;;;;2314132;54;20964;-70
2023/01/27 01:38:03;;;;;;;20.27;9.32;;;3.50;67.60;;;;;;2337063;53;21394;-70
2023/01/27 01:40:29;;;;;;;18.85;9.63;;;3.50;67.60;;;;;;2314187;54;21460;-74
2023/01/27 01:42:57;;;;;;;19.05;9.55;;;3.50;67.60;;;;;;2314770;53;20949;-72
2023/01/27 01:46:24;;;;;;;19.25;9.25;;;3.50;67.60;;;;;;2323652;53;20970;-72
2023/01/27 01:48:55;;;;;;;15.30;7.90;;;3.50;67.30;;;;;;2297941;53;21032;-70
2023/01/27 01:51:27;;;;;;;17.83;7.97;;;3.50;67.70;;;;;;2316461;54;21682;-72
2023/01/27 01:54:54;;;;;;;16.48;7.72;;;3.50;67.70;;;;;;2388132;53;20929;-73
2023/01/27 02:01:02;;;;;;;14.82;6.12;;;3.50;67.70;;;;;;2311852;54;21041;-73
2023/01/27 02:03:28;;;;;;;14.65;6.90;;;3.50;67.80;;;;;;2313330;54;20993;-70
2023/01/27 02:05:54;;;;;;;15.55;7.28;;;3.50;67.90;;;;;;2315214;54;20992;-71
2023/01/27 02:08:36;;;;;;;15.68;7.55;;;3.50;68.00;;;;;;2313746;53;21001;-70
2023/01/27 02:11:02;;;;;;;14.32;7.03;;;3.50;68.00;;;;;;2315092;53;20965;-72
2023/01/27 02:13:29;;;;;;;15.10;7.65;;;3.50;67.90;;;;;;2526294;53;20993;-70
2023/01/27 02:15:58;;;;;;;14.70;7.70;;;3.50;68.00;;;;;;2315497;54;20945;-69
2023/01/27 02:18:25;;;;;;;14.87;7.32;;;3.50;67.90;;;;;;2314190;54;21001;-70
2023/01/27 02:20:53;;;;;;;15.23;6.82;;;3.50;67.90;;;;;;2412069;52;20986;-70
2023/01/27 02:23:40;;;;;;;16.17;7.12;;;3.60;68.00;;;;;;2314891;53;20921;-72
2023/01/27 02:26:17;;;;;;;13.90;7.12;;;3.50;67.90;;;;;;2313148;54;20952;-71
2023/01/27 02:28:44;;;;;;;16.02;7.50;;;3.60;67.90;;;;;;2312587;53;20957;-70
2023/01/27 02:31:12;;;;;;;13.85;7.10;;;3.60;67.90;;;;;;2313537;53;20997;-71
2023/01/27 02:33:41;;;;;;;13.30;6.62;;;3.60;67.90;;;;;;2313212;53;21004;-72
2023/01/27 02:36:12;;;;;;;13.45;6.93;;;3.50;67.80;;;;;;2313348;53;20980;-71
2023/01/27 02:38:46;;;;;;;13.75;7.25;;;3.60;68.00;;;;;;2313431;54;20981;-71
2023/01/27 02:41:31;;;;;;;16.27;7.62;;;3.60;67.90;;;;;;2313535;54;21249;-73
2023/01/27 02:43:58;;;;;;;17.30;7.22;;;3.60;67.90;;;;;;2313973;53;20965;-71
2023/01/27 02:46:25;;;;;;;15.32;7.07;;;3.60;68.00;;;;;;2338311;53;20930;-70
2023/01/27 02:48:51;;;;;;;15.65;7.47;;;3.60;68.00;;;;;;2338007;53;21018;-71
2023/01/27 02:51:17;;;;;;;15.20;7.70;;;3.60;68.00;;;;;;2329457;53;20916;-71
2023/01/27 02:53:44;;;;;;;16.70;7.43;;;3.60;68.00;;;;;;2313933;54;21379;-73
2023/01/27 02:56:10;;;;;;;13.00;6.47;;;3.60;67.90;;;;;;2315470;54;21508;-71
2023/01/27 02:58:37;;;;;;;16.02;8.10;;;3.60;67.90;;;;;;2415837;53;20964;-72
2023/01/27 03:01:03;;;;;;;17.30;8.00;;;3.70;68.00;;;;;;2313719;54;21272;-71
2023/01/27 03:03:30;;;;;;;17.30;8.52;;;3.70;68.00;;;;;;2312502;54;21849;-70
2023/01/27 03:05:56;;;;;;;13.85;7.12;;;3.70;68.00;;;;;;2313714;54;21367;-71
2023/01/27 03:08:22;;;;;;;16.67;7.57;;;3.70;67.90;;;;;;2332690;54;20988;-72
2023/01/27 03:10:49;;;;;;;16.52;7.60;;;3.70;67.90;;;;;;2553144;53;21000;-71
2023/01/27 03:13:16;;;;;;;14.13;6.62;;;3.70;67.80;;;;;;2313620;54;21073;-71
2023/01/27 03:18:27;;;;;;;16.15;7.12;;;3.70;67.90;;;;;;2317694;54;21382;-70
2023/01/27 03:20:59;;;;;;;14.13;6.55;;;3.70;67.90;;;;;;2337815;54;20949;-72
2023/01/27 03:23:26;;;;;;;15.02;7.87;;;3.70;67.90;;;;;;2290296;55;21012;-71
2023/01/27 03:25:54;;;;;;;15.07;7.30;;;3.70;68.00;;;;;;2452161;53;21758;-71
2023/01/27 03:28:20;;;;;;;14.98;6.97;;;3.70;67.90;;;;;;2324815;53;21457;-71
2023/01/27 03:30:46;;;;;;;16.08;7.70;;;3.70;67.80;;;;;;2330437;53;21534;-70
2023/01/27 03:33:13;;;;;;;15.48;7.55;;;3.70;67.80;;;;;;2477647;53;20963;-72
2023/01/27 03:35:47;;;;;;;15.32;7.57;;;3.70;67.80;;;;;;2326546;53;20992;-72
2023/01/27 03:46:33;;;;;;;14.30;7.18;;;3.70;67.70;;;;;;2509460;53;21543;-72
2023/01/27 03:49:00;;;;;;;19.85;8.88;;;3.70;67.70;;;;;;2312965;54;21746;-71
2023/01/27 03:51:26;;;;;;;17.17;8.63;;;3.70;67.70;;;;;;2313716;54;20933;-71
2023/01/27 03:53:53;;;;;;;14.45;7.68;;;3.60;67.60;;;;;;2313385;53;20957;-71
2023/01/27 03:56:20;;;;;;;18.40;8.80;;;3.60;67.50;;;;;;2343316;53;20984;-70
2023/01/27 03:58:46;;;;;;;17.48;8.65;;;3.60;67.50;;;;;;2314109;54;20937;-72
2023/01/27 04:01:18;;;;;;;18.10;8.57;;;3.60;67.60;;;;;;2314637;54;20960;-71
2023/01/27 04:09:28;;;;;;;17.67;8.13;;;3.60;67.70;;;;;;2321810;53;21064;-73
2023/01/27 04:11:58;;;;;;;16.08;8.00;;;3.60;67.60;;;;;;2413934;53;21009;-71
2023/01/27 04:14:29;;;;;;;14.80;8.13;;;3.60;67.80;;;;;;2314820;54;21028;-73
2023/01/27 04:17:03;;;;;;;16.33;8.60;;;3.60;67.80;;;;;;2315198;54;21382;-71
2023/01/27 04:19:39;;;;;;;15.77;7.82;;;3.60;67.70;;;;;;2430379;55;21021;-71
2023/01/27 04:22:05;;;;;;;16.87;8.43;;;3.60;67.80;;;;;;2555115;53;21772;-71
2023/01/27 04:24:31;;;;;;;17.70;8.23;;;3.60;67.80;;;;;;2313425;54;20987;-70
2023/01/27 04:27:09;;;;;;;15.00;7.37;;;3.60;67.80;;;;;;2315007;54;21044;-71
2023/01/27 04:29:36;;;;;;;17.70;8.52;;;3.60;67.70;;;;;;2313724;54;21001;-71
2023/01/27 04:32:04;;;;;;;17.45;8.23;;;3.60;67.80;;;;;;2314686;54;20989;-72
2023/01/27 04:34:31;;;;;;;14.20;8.00;;;3.60;67.80;;;;;;2314646;54;21402;-70
2023/01/27 04:36:58;;;;;;;17.80;8.38;;;3.60;67.70;;;;;;2314749;54;20981;-70
2023/01/27 04:39:24;;;;;;;15.25;7.75;;;3.60;67.70;;;;;;2554795;53;21927;-71
2023/01/27 04:41:50;;;;;;;16.02;7.40;;;3.60;67.60;;;;;;2314000;54;20961;-71
2023/01/27 04:44:19;;;;;;;15.52;8.32;;;3.60;67.60;;;;;;2460862;53;21016;-71
2023/01/27 04:46:46;;;;;;;12.35;6.93;;;3.60;67.70;;;;;;2554954;53;20961;-72
2023/01/27 04:49:13;;;;;;;16.08;7.93;;;3.60;67.70;;;;;;2314461;54;20944;-71
2023/01/27 04:51:39;;;;;;;15.02;8.30;;;3.60;67.80;;;;;;2314069;54;20961;-72
2023/01/27 04:54:06;;;;;;;15.02;7.87;;;3.60;67.80;;;;;;2555457;53;20928;-71
2023/01/27 04:56:34;;;;;;;17.15;8.57;;;3.60;67.80;;;;;;2313994;54;20948;-71
2023/01/27 04:59:01;;;;;;;15.18;8.13;;;3.60;67.80;;;;;;2315184;54;21675;-71
2023/01/27 05:01:27;;;;;;;16.75;9.20;;;3.60;67.70;;;;;;2291002;55;20953;-70
2023/01/27 05:03:54;;;;;;;16.33;8.52;;;3.60;67.70;;;;;;2314773;54;20901;-72
2023/01/27 05:06:21;;;;;;;16.95;9.10;;;3.60;67.70;;;;;;2325446;53;20957;-73
2023/01/27 05:08:48;;;;;;;15.60;8.10;;;3.60;67.70;;;;;;2553948;53;20948;-70
2023/01/27 05:11:14;;;;;;;14.43;8.15;;;3.60;67.70;;;;;;2383470;53;20961;-73
2023/01/27 05:13:40;;;;;;;14.70;7.97;;;3.60;67.80;;;;;;2313532;54;21382;-71
2023/01/27 05:16:20;;;;;;;16.85;8.93;;;3.60;67.70;;;;;;2314456;54;21016;-73
2023/01/27 05:18:48;;;;;;;20.08;10.55;;;3.60;67.50;;;;;;2313617;54;20976;-71
2023/01/27 05:21:16;;;;;;;17.40;9.68;;;3.60;67.60;;;;;;2313972;54;20937;-73
2023/01/27 05:23:42;;;;;;;19.17;8.88;;;3.60;67.50;;;;;;2380095;53;20941;-73
2023/01/27 05:26:13;;;;;;;18.30;9.30;;;3.60;67.50;;;;;;2313938;54;21386;-73
2023/01/27 05:28:41;;;;;;;16.67;8.68;;;3.60;67.40;;;;;;2394950;53;21015;-73
2023/01/27 05:31:17;;;;;;;17.12;8.90;;;3.50;67.40;;;;;;2314075;54;21020;-72
2023/01/27 05:33:43;;;;;;;15.85;8.00;;;3.60;67.50;;;;;;2339206;53;21416;-72
2023/01/27 05:36:11;;;;;;;15.75;8.57;;;3.60;67.60;;;;;;2317533;54;21016;-72
2023/01/27 05:38:37;;;;;;;19.25;9.05;;;3.60;67.70;;;;;;2313267;54;20964;-71
2023/01/27 05:41:04;;;;;;;16.42;8.35;;;3.60;67.80;;;;;;2314074;54;21269;-71
2023/01/27 05:43:31;;;;;;;16.73;9.20;;;3.60;67.80;;;;;;2512412;53;21340;-71
2023/01/27 05:46:02;;;;;;;18.75;9.70;;;3.60;67.70;;;;;;2515709;53;21807;-72
2023/01/27 05:48:28;;;;;;;14.60;7.95;;;3.60;67.70;;;;;;2313178;54;20976;-72
2023/01/27 05:50:55;;;;;;;15.43;8.20;;;3.60;67.70;;;;;;2554193;53;21433;-72
2023/01/27 05:53:22;;;;;;;14.40;7.30;;;3.60;67.80;;;;;;2313556;54;20948;-72
2023/01/27 05:55:49;;;;;;;18.17;9.00;;;3.60;67.70;;;;;;2430629;53;21008;-71
2023/01/27 05:58:16;;;;;;;16.70;8.65;;;3.60;67.80;;;;;;2313182;54;20944;-70
2023/01/27 06:00:42;;;;;;;15.85;8.23;;;3.60;67.80;;;;;;2340235;54;20937;-72
2023/01/27 06:03:08;;;;;;;17.70;9.60;;;3.60;67.80;;;;;;2313859;54;21550;-72
2023/01/27 06:05:35;;;;;;;16.52;8.77;;;3.60;67.80;;;;;;2551612;53;20948;-70
2023/01/27 06:08:01;;;;;;;18.80;9.50;;;3.60;67.90;;;;;;2313936;54;21019;-70
2023/01/27 06:10:27;;;;;;;14.30;8.75;;;3.70;68.00;;;;;;2466116;53;20916;-71
2023/01/27 06:12:54;;;;;;;17.05;9.40;;;3.70;67.90;;;;;;2313817;54;21550;-71
2023/01/27 06:15:20;;;;;;;16.37;9.05;;;3.70;67.90;;;;;;2313677;54;20960;-71
2023/01/27 06:17:46;;;;;;;17.05;8.82;;;3.70;67.80;;;;;;2313086;54;21009;-72
2023/01/27 06:20:12;;;;;;;15.15;8.27;;;3.70;67.70;;;;;;2313899;54;20962;-72
2023/01/27 06:22:38;;;;;;;15.70;8.63;;;3.70;67.70;;;;;;2313280;54;21412;-70
2023/01/27 06:25:05;;;;;;;13.50;7.62;;;3.70;67.70;;;;;;2541770;53;21652;-71
2023/01/27 06:27:32;;;;;;;13.32;7.62;;;3.70;67.70;;;;;;2460141;53;21477;-70
2023/01/27 06:29:58;;;;;;;13.55;7.80;;;3.70;67.70;;;;;;2398855;53;20933;-72
2023/01/27 06:32:24;;;;;;;16.27;8.40;;;3.70;67.70;;;;;;2313797;54;21915;-72
2023/01/27 06:34:50;;;;;;;17.30;9.23;;;3.70;67.70;;;;;;2429350;53;20944;-72
2023/01/27 06:37:17;;;;;;;14.70;8.85;;;3.70;67.60;;;;;;2313625;54;21859;-70
2023/01/27 06:39:43;;;;;;;16.85;8.95;;;3.70;67.60;;;;;;2392399;53;21021;-72
2023/01/27 06:42:09;;;;;;;15.10;7.57;;;3.70;67.60;;;;;;2314023;54;21538;-71
2023/01/27 06:44:35;;;;;;;15.38;8.75;;;3.70;67.70;;;;;;2510344;53;21081;-71
2023/01/27 06:47:02;;;;;;;15.38;8.77;;;3.70;67.70;;;;;;2314271;54;21000;-71
2023/01/27 06:49:28;;;;;;;17.35;8.75;;;3.70;67.70;;;;;;2313315;54;21024;-72
2023/01/27 06:51:54;;;;;;;14.55;7.97;;;3.70;67.70;;;;;;2553848;53;21020;-72
2023/01/27 06:54:20;;;;;;;12.60;7.85;;;3.70;67.70;;;;;;2313960;54;21345;-73
2023/01/27 06:56:46;;;;;;;15.15;7.70;;;3.70;67.80;;;;;;2539452;53;20956;-71
2023/01/27 06:59:13;;;;;;;18.98;9.43;;;3.70;67.80;;;;;;2393841;53;21549;-72
2023/01/27 07:01:39;;;;;;;15.93;8.13;;;3.70;67.80;;;;;;2331662;53;20948;-72
2023/01/27 07:04:06;;;;;;;16.75;8.43;;;3.70;67.80;;;;;;2314150;54;21332;-70
2023/01/27 07:06:32;;;;;;;14.50;8.13;;;3.70;67.80;;;;;;2512654;53;21316;-72
2023/01/27 07:08:58;;;;;;;17.33;8.70;;;3.80;67.90;;;;;;2313713;54;21423;-71
2023/01/27 07:11:24;;;;;;;16.12;8.25;;;3.80;67.80;;;;;;2330307;53;21469;-71
2023/01/27 07:13:51;;;;;;;15.38;8.77;;;3.80;67.80;;;;;;2553410;53;21391;-71
2023/01/27 07:16:17;;;;;;;15.93;8.20;;;3.80;67.80;;;;;;2461857;53;21049;-71
2023/01/27 07:18:43;;;;;;;17.58;8.52;;;3.80;67.80;;;;;;2467736;53;21037;-71
2023/01/27 07:21:09;;;;;;;15.82;8.07;;;3.80;67.80;;;;;;2313874;54;21020;-72
2023/01/27 07:23:36;;;;;;;16.58;8.50;;;3.80;67.70;;;;;;2317977;54;21001;-72
2023/01/27 07:26:02;;;;;;;18.52;9.70;;;3.80;67.60;;;;;;2374711;53;21514;-72
2023/01/27 07:28:31;;;;;;;16.52;8.75;;;3.80;67.60;;;;;;2412476;53;21432;-70
2023/01/27 07:31:01;;;;;;;14.63;7.68;;;3.80;67.60;;;;;;2314176;54;21582;-72
2023/01/27 07:33:27;;;;;;;16.50;8.18;;;3.80;67.60;;;;;;2313920;54;20929;-72
2023/01/27 07:35:54;;;;;;;20.15;9.77;;;3.80;67.60;;;;;;2313759;54;20936;-72
2023/01/27 07:38:20;;;;;;;16.23;8.98;;;3.80;67.60;;;;;;2313779;54;21338;-71
2023/01/27 07:40:46;;;;;;;19.73;9.50;;;3.80;67.50;;;;;;2350451;53;21052;-73
2023/01/27 07:43:13;;;;;;;19.15;10.02;;;3.80;67.50;;;;;;2314118;54;21309;-70
2023/01/27 07:45:39;;;;;;;17.48;9.10;;;3.80;67.40;;;;;;2452179;53;21339;-71
2023/01/27 07:48:06;;;;;;;18.42;9.40;;;3.70;67.40;;;;;;2554449;53;20929;-73
2023/01/27 07:50:33;;;;;;;16.60;9.20;;;3.70;67.50;;;;;;2537498;53;21355;-73
2023/01/27 07:53:00;;;;;;;16.48;8.55;;;3.70;67.60;;;;;;2372406;53;21024;-72
2023/01/27 07:55:26;;;;;;;16.17;8.88;;;3.70;67.60;;;;;;2313474;54;21363;-71
2023/01/27 07:57:53;;;;;;;15.02;8.52;;;3.70;67.70;;;;;;2313104;54;21072;-71
2023/01/27 08:00:20;;;;;;;16.17;8.40;;;3.70;67.70;;;;;;2469352;53;21526;-72
2023/01/27 08:02:50;;;;;;;13.95;7.28;;;3.80;67.80;;;;;;2313211;54;20976;-72
2023/01/27 08:05:17;;;;;;;16.45;8.27;;;3.80;67.80;;;;;;2314027;54;20957;-73
2023/01/27 08:07:43;;;;;;;13.95;7.32;;;3.80;67.90;;;;;;2312549;54;21056;-71
2023/01/27 08:10:10;;;;;;;14.57;7.80;;;3.80;67.90;;;;;;2387063;53;21052;-73
2023/01/27 08:12:36;;;;;;;14.27;7.78;;;3.90;67.90;;;;;;2313730;54;20956;-71
2023/01/27 08:15:03;;;;;;;17.58;8.65;;;3.80;67.80;;;;;;2408828;53;21036;-71
2023/01/27 08:17:29;;;;;;;16.33;8.75;;;3.80;67.80;;;;;;2471977;53;20992;-72
2023/01/27 08:19:56;;;;;;;15.20;9.82;;;3.80;67.80;;;;;;2314184;54;20965;-71
2023/01/27 08:22:22;;;;;;;17.27;9.88;;;3.80;67.80;;;;;;2314198;54;21379;-72
2023/01/27 08:24:48;;;;;;;14.10;7.82;;;3.80;67.80;;;;;;2313579;54;21348;-72
2023/01/27 08:27:15;;;;;;;16.33;9.07;;;3.80;67.90;;;;;;2313995;54;20960;-72
2023/01/27 08:29:41;;;;;;;16.92;8.73;;;3.90;68.00;;;;;;2328313;53;21372;-70
2023/01/27 08:32:07;;;;;;;14.20;8.35;;;3.90;68.10;;;;;;2325129;53;21020;-73
2023/01/27 08:34:34;;;;;;;19.45;9.88;;;3.90;68.10;;;;;;2313667;54;20929;-72
2023/01/27 08:37:00;;;;;;;16.58;9.02;;;3.90;68.10;;;;;;2313978;54;20953;-71
2023/01/27 08:39:26;;;;;;;18.37;9.00;;;3.90;68.00;;;;;;2313830;54;21469;-72
2023/01/27 08:41:52;;;;;;;15.80;8.02;;;4.00;68.00;;;;;;2313598;54;21746;-72
2023/01/27 08:44:19;;;;;;;16.55;7.95;;;4.00;68.00;;;;;;2554580;53;21454;-72
2023/01/27 08:46:45;;;;;;;15.32;8.57;;;4.00;68.10;;;;;;2433449;53;21578;-71
2023/01/27 08:49:14;;;;;;;14.05;7.50;;;4.00;68.10;;;;;;2313973;54;21438;-72
2023/01/27 08:51:40;;;;;;;14.60;7.87;;;4.00;68.20;;;;;;2313371;54;21620;-71
2023/01/27 08:54:07;;;;;;;15.73;8.02;;;4.00;68.30;;;;;;2314439;54;21024;-72
2023/01/27 08:56:33;;;;;;;19.45;8.52;;;4.10;68.50;;;;;;2421850;53;21489;-72
2023/01/27 08:58:59;;;;;;;19.98;9.50;;;4.10;68.60;;;;;;2403927;53;21024;-71
2023/01/27 09:01:25;;;;;;;16.42;8.35;;;4.10;68.70;;;;;;2313732;54;21043;-71
2023/01/27 09:03:52;;;;;;;16.00;8.75;;;4.20;68.90;;;;;;2313450;53;21236;-71
2023/01/27 09:06:18;;;;;;;15.75;8.93;;;4.20;69.00;;;;;;2313608;54;21013;-72
2023/01/27 09:09:07;;;;;;;16.10;8.88;;;4.30;69.10;;;;;;2352230;54;20993;-72
2023/01/27 09:11:38;;;;;;;16.55;9.02;;;4.40;69.20;;;;;;2320456;53;21446;-71
2023/01/27 09:14:04;;;;;;;17.73;8.63;;;4.40;69.10;;;;;;2554550;53;21393;-71
2023/01/27 09:16:31;;;;;;;15.52;8.30;;;4.50;69.10;;;;;;2313403;54;21457;-72
2023/01/27 09:18:57;;;;;;;13.35;7.68;;;4.50;69.20;;;;;;2313769;54;21036;-72
2023/01/27 09:21:24;;;;;;;15.45;8.23;;;4.60;69.20;;;;;;2314045;54;21028;-72
2023/01/27 09:23:50;;;;;;;14.50;7.68;;;4.60;69.20;;;;;;2313299;54;21021;-71
2023/01/27 09:26:16;;;;;;;14.25;7.45;;;4.70;69.20;;;;;;2320648;54;21087;-71
2023/01/27 09:28:43;;;;;;;14.63;7.72;;;4.80;69.30;;;;;;2313433;54;21293;-72
2023/01/27 09:31:09;;;;;;;16.00;8.77;;;4.80;69.10;;;;;;2314175;54;21277;-72
2023/01/27 09:33:37;;;;;;;15.43;8.90;;;4.90;69.10;;;;;;2313492;54;21295;-72
2023/01/27 09:36:09;;;;;;;14.40;7.80;;;4.90;69.10;;;;;;2341029;53;21006;-71
2023/01/27 09:38:39;;;;;;;13.00;7.10;;;4.90;69.00;;;;;;2368433;53;21007;-72
2023/01/27 09:45:43;;;;;;;11.70;6.45;;;5.00;69.00;;;;;;2314094;54;20952;-72
2023/01/27 09:48:47;;;;;;;12.70;6.30;;;5.10;68.00;;;;;;2314025;54;21395;-71
2023/01/27 09:51:27;;;;;;;10.60;5.90;;;5.20;68.60;;;;;;2464522;53;20993;-72
2023/01/27 09:54:12;;;;;;;11.90;6.20;;;5.20;68.80;;;;;;2313791;54;21084;-71
2023/01/27 10:00:04;;;;;;;11.77;6.12;;;5.20;68.70;;;;;;2313444;54;21551;-72
2023/01/27 10:02:52;;;;;;;11.20;5.75;;;5.20;68.40;;;;;;2350925;53;20964;-72
2023/01/27 10:06:34;;;;;;;9.93;4.78;;;5.30;68.40;;;;;;2314383;54;21013;-71
2023/01/27 10:09:27;;;;;;;8.70;4.85;;;5.40;68.20;;;;;;2314368;54;21378;-72
2023/01/27 10:14:04;;;;;;;9.75;5.22;;;5.40;68.00;;;;;;2432434;53;21789;-72
2023/01/27 10:19:26;;;;;;;11.00;5.25;;;5.40;67.50;;;;;;2412826;53;20985;-72
2023/01/27 10:22:24;;;;;;;9.25;5.40;;;5.40;67.40;;;;;;2323085;53;21019;-72
2023/01/27 10:27:51;;;;;;;9.25;4.72;;;5.50;67.90;;;;;;2325752;53;21008;-71
2023/01/27 10:30:26;;;;;;;8.68;4.35;;;5.50;67.10;;;;;;2314147;54;21089;-71
2023/01/27 10:33:19;;;;;;;8.15;4.35;;;5.50;67.80;;;;;;2313904;54;21047;-72
2023/01/27 10:35:53;;;;;;;10.27;5.22;;;5.50;67.50;;;;;;2376939;53;20961;-72
2023/01/27 10:41:23;;;;;;;9.38;5.03;;;5.50;67.70;;;;;;2314218;54;21592;-72
2023/01/27 10:44:15;;;;;;;10.25;5.05;;;5.50;66.90;;;;;;2384026;53;21282;-72
2023/01/27 10:48:40;;;;;;;9.77;5.25;;;5.50;67.50;;;;;;2397406;53;21016;-72
2023/01/27 10:51:07;;;;;;;;;;;5.50;67.20;;;;;;2317665;54;20937;-71
2023/01/27 10:53:47;;;;;;;9.63;4.62;;;5.50;67.10;;;;;;2317833;54;20120;-72
2023/01/27 10:56:37;;;;;;;11.50;5.20;;;5.50;67.80;;;;;;2314120;54;21016;-72
2023/01/27 10:59:30;;;;;;;8.68;4.85;;;5.60;68.20;;;;;;2314462;53;20957;-71
2023/01/27 11:02:24;;;;;;;10.70;5.45;;;5.60;68.00;;;;;;2445384;53;21505;-71
2023/01/27 11:04:58;;;;;;;10.00;5.78;;;5.60;67.90;;;;;;2313258;54;20985;-72
2023/01/27 11:07:25;;;;;;;10.90;5.87;;;5.70;67.80;;;;;;2369853;53;21577;-72
2023/01/27 11:10:02;;;;;;;10.93;6.05;;;5.60;67.60;;;;;;2363384;53;21856;-72
2023/01/27 11:12:40;;;;;;;12.30;6.62;;;5.70;67.30;;;;;;2314893;53;20987;-72
2023/01/27 11:15:32;;;;;;;10.65;6.40;;;5.60;67.10;;;;;;2313926;54;21024;-72
2023/01/27 11:18:03;;;;;;;13.20;6.55;;;5.60;66.80;;;;;;2554267;53;21520;-72
2023/01/27 11:20:34;;;;;;;10.55;6.05;;;5.60;67.30;;;;;;2314039;54;20985;-72
2023/01/27 11:23:25;;;;;;;11.30;6.22;;;5.60;67.10;;;;;;2313974;53;20930;-71
2023/01/27 11:26:15;;;;;;;10.38;5.90;;;5.60;67.20;;;;;;2553274;53;20957;-71
2023/01/27 11:28:47;;;;;;;10.80;6.20;;;5.60;67.10;;;;;;2479291;53;20968;-72
2023/01/27 11:38:21;;;;;;;11.02;6.03;;;5.60;67.30;;;;;;2314298;54;21028;-71
2023/01/27 11:40:49;;;;;;;10.05;4.72;;;5.60;66.70;;;;;;2553292;53;21052;-72
2023/01/27 11:43:17;;;;;;;8.55;4.20;;;5.60;67.60;;;;;;2324754;53;20994;-72
2023/01/27 11:45:45;;;;;;;8.23;4.35;;;5.60;67.50;;;;;;2313315;54;21004;-72
2023/01/27 11:48:13;;;;;;;8.90;4.60;;;5.60;67.60;;;;;;2314048;54;21012;-72
2023/01/27 11:50:40;;;;;;;9.43;4.57;;;5.70;67.80;;;;;;2313550;54;21477;-72
2023/01/27 11:53:26;;;;;;;8.82;4.70;;;5.70;67.70;;;;;;2313891;54;21020;-72
2023/01/27 11:55:56;;;;;;;9.35;5.15;;;5.70;67.30;;;;;;2313647;54;21056;-73
2023/01/27 11:58:30;;;;;;;8.70;4.57;;;5.70;67.70;;;;;;2554456;53;21399;-72
2023/01/27 12:00:58;;;;;;;9.77;4.90;;;5.70;67.70;;;;;;2313936;54;20972;-72
2023/01/27 12:04:03;;;;;;;8.85;5.22;;;5.80;67.90;;;;;;2313308;54;21025;-71
2023/01/27 12:06:43;;;;;;;8.82;4.82;;;5.80;67.30;;;;;;2351452;53;21876;-72
2023/01/27 12:09:28;;;;;;;9.18;5.12;;;5.80;67.50;;;;;;2313543;54;21033;-72
2023/01/27 12:12:10;;;;;;;8.95;5.12;;;5.90;67.10;;;;;;2314011;54;20996;-72
2023/01/27 12:14:36;;;;;;;9.20;4.78;;;5.90;67.30;;;;;;2433375;53;20972;-72
2023/01/27 12:17:02;;;;;;;8.32;4.50;;;5.90;67.70;;;;;;2313800;54;20944;-71
2023/01/27 12:19:46;;;;;;;10.23;5.18;;;5.90;67.70;;;;;;2512654;53;21579;-72
2023/01/27 12:23:00;;;;;;;10.40;5.85;;;5.90;67.20;;;;;;2313909;54;20940;-72
2023/01/27 12:25:27;;;;;;;;;;;6.00;67.60;;;;;;2319246;54;21375;-71
2023/01/27 12:27:58;;;;;;;8.75;4.40;;;6.00;66.70;;;;;;2486355;53;20107;-72
2023/01/27 12:30:26;;;;;;;8.93;4.85;;;6.00;67.60;;;;;;2351938;54;21463;-72
2023/01/27 12:32:52;;;;;;;9.63;5.07;;;6.00;67.60;;;;;;2313530;54;21548;-72
2023/01/27 12:35:29;;;;;;;8.43;4.62;;;6.00;67.50;;;;;;2347032;53;21434;-72
2023/01/27 12:38:19;;;;;;;8.75;4.85;;;6.00;67.40;;;;;;2313802;54;20984;-72
2023/01/27 12:40:46;;;;;;;8.00;4.30;;;6.10;67.50;;;;;;2324928;53;21715;-72
2023/01/27 12:43:20;;;;;;;8.05;4.62;;;6.10;67.50;;;;;;2313677;54;21554;-71
2023/01/27 12:46:17;;;;;;;9.35;5.28;;;6.10;67.40;;;;;;2313535;54;20949;-72
2023/01/27 12:48:49;;;;;;;8.52;5.07;;;6.20;67.00;;;;;;2313819;54;20985;-72
2023/01/27 12:51:18;;;;;;;9.70;5.25;;;6.20;67.40;;;;;;2401470;53;21004;-73
2023/01/27 12:53:49;;;;;;;8.45;4.57;;;6.20;67.40;;;;;;2314128;54;20988;-72
2023/01/27 12:56:22;;;;;;;9.05;4.95;;;6.20;67.30;;;;;;2314171;54;20976;-71
2023/01/27 12:58:57;;;;;;;10.77;5.97;;;6.20;67.20;;;;;;2313786;54;20969;-72
2023/01/27 13:01:37;;;;;;;8.88;4.80;;;6.20;67.10;;;;;;2448894;53;21753;-72
2023/01/27 13:04:15;;;;;;;8.73;4.57;;;6.30;67.00;;;;;;2318260;53;21000;-72
2023/01/27 13:07:28;;;;;;;8.38;4.80;;;6.30;67.30;;;;;;2313690;54;20949;-72
2023/01/27 13:09:59;;;;;;;11.40;5.37;;;6.30;67.30;;;;;;2314414;53;20929;-71
2023/01/27 13:12:29;;;;;;;9.68;5.32;;;6.30;67.00;;;;;;2554119;53;21438;-71
2023/01/27 13:14:57;;;;;;;10.07;5.85;;;6.30;67.00;;;;;;2439120;53;20939;-72
2023/01/27 13:17:36;;;;;;;9.73;5.65;;;6.30;67.00;;;;;;2313679;54;20940;-73
2023/01/27 13:20:20;;;;;;;9.85;5.32;;;6.30;66.60;;;;;;2313900;54;21497;-71
2023/01/27 13:23:21;;;;;;;8.75;5.05;;;6.30;66.90;;;;;;2313492;54;21406;-72
2023/01/27 13:26:33;;;;;;;9.95;5.32;;;6.30;66.90;;;;;;2431888;53;21001;-73
2023/01/27 13:29:33;;;;;;;8.93;4.90;;;6.30;66.10;;;;;;2395668;53;21612;-72
2023/01/27 13:32:10;;;;;;;8.32;5.10;;;6.30;66.30;;;;;;2313659;54;21556;-72
2023/01/27 13:35:04;;;;;;;9.48;5.80;;;6.30;66.60;;;;;;2313299;54;20985;-71
2023/01/27 13:44:37;;;;;;;9.63;5.72;;;6.30;66.50;;;;;;2316664;54;21039;-72
2023/01/27 13:47:06;;;;;;;10.45;4.45;;;6.30;66.00;;;;;;2313500;54;20952;-72
2023/01/27 13:49:39;;;;;;;11.98;5.90;;;6.30;66.70;;;;;;2553773;53;20913;-71
2023/01/27 13:52:06;;;;;;;9.88;5.32;;;6.20;66.40;;;;;;2313864;54;20976;-72
2023/01/27 13:54:32;;;;;;;10.07;5.60;;;6.20;66.60;;;;;;2451490;53;21490;-73
2023/01/27 14:00:10;;;;;;;10.88;5.70;;;6.20;66.50;;;;;;2313391;54;21702;-72
2023/01/27 14:03:15;;;;;;;10.35;5.65;;;6.10;65.70;;;;;;2313547;54;20993;-71
2023/01/27 14:08:37;;;;;;;11.85;6.90;;;6.10;66.00;;;;;;2313658;54;20943;-72
2023/01/27 14:11:33;;;;;;;11.60;6.18;;;6.10;66.00;;;;;;2331111;54;20945;-73
2023/01/27 14:14:19;;;;;;;11.80;6.68;;;6.00;66.10;;;;;;2333449;54;21029;-72
2023/01/27 14:18:26;;;;;;;10.90;6.07;;;6.00;66.10;;;;;;2313171;54;21709;-72
2023/01/27 14:22:59;;;;;;;11.55;6.15;;;5.90;65.80;;;;;;2319924;53;20918;-71
2023/01/27 14:28:53;;;;;;;10.20;5.57;;;5.90;66.00;;;;;;2423073;53;21400;-72